Flight Track Log - Related Links

Times and Time Zones

All times are in EDT time to prevent confusion due to time zone crossing. See the N4508X flight status page for this flight to view local times or setup timezone preferences in your user account.


Time Position Orientation Groundspeed Altitude Reporting Facility
EDT Latitude Longitude Course Direction KTS MPH feet Rate Location/Type
Sat 04:00:03 PM 42.1839 -71.7983 233° Southwest 126 145 4,000  Level Boston Center
Sat 04:01:06 PM 42.1611 -71.8322 228° Southwest 126 145 3,900 -97 Descending Boston Center
Sat 04:02:07 PM 42.1383 -71.8689 230° Southwest 121 139 3,800 -52 Descending Boston Center
Sat 04:03:02 PM 42.1178 -71.9000 228° Southwest 122 140 3,800 53 Level Boston Center
Sat 04:04:00 PM 42.0992 -71.9364 235° Southwest 119 137 3,900 50 Climbing Boston Center
Sat 04:05:00 PM 42.0196 -72.0867 233° Southwest  Level Estimated
Sat 04:05:01 PM 42.0786 -71.9731 233° Southwest 123 142 3,900  Level Boston Center
Sat 04:06:04 PM 42.0578 -72.0094 232° Southwest 121 139 3,900  Level Boston Center
Sat 04:07:11 PM 42.0350 -72.0461 230° Southwest 117 135 3,900  Level Boston Center
Sat 04:08:11 PM 42.0142 -72.0825 232° Southwest 120 138 3,900  Level Boston Center
Sat 04:09:18 PM 41.9914 -72.1244 234° Southwest 118 136 3,900  Level Boston Center
Sat 04:10:25 PM 41.9667 -72.1636 230° Southwest 122 140 3,900 -47 Level Boston Center
Sat 04:11:25 PM 41.9478 -72.1972 233° Southwest 117 135 3,800  Descending Boston Center
Sat 04:12:25 PM 41.9272 -72.2336 233° Southwest 119 137 3,900  Climbing Boston Center
Sat 04:13:26 PM 41.9083 -72.2728 237° Southwest 122 140 3,800  Descending Boston Center
Sat 04:14:08 PM 41.8917 -72.2950 225° Southwest 118 136 3,900 55 Climbing Boston Center
Sat 04:15:16 PM 41.8689 -72.3342 232° Southwest 119 137 3,900  Level Boston Center
Sat 04:16:16 PM 41.8503 -72.3703 235° Southwest 118 136 3,900  Level Boston Center
Sat 04:17:17 PM 41.8272 -72.4039 227° Southwest 120 138 3,900  Level Boston Center
Sat 04:18:18 PM 41.8064 -72.4372 230° Southwest 119 137 3,900  Level Boston Center
Sat 04:19:19 PM 41.7878 -72.4736 236° Southwest 118 136 3,900 -49 Level Boston Center
Sat 04:20:20 PM 41.7647 -72.5097 229° Southwest 122 140 3,800 -52 Descending Boston Center
Sat 04:21:14 PM 41.7458 -72.5403 230° Southwest 119 137 3,800 50 Level Boston Center
Sat 04:22:21 PM 41.7250 -72.5792 234° Southwest 113 130 3,900 90 Climbing Boston Center
Sat 04:23:28 PM 41.7000 -72.6153 227° Southwest 120 138 4,000  Climbing Boston Center
Sat 04:24:35 PM 41.6792 -72.6542 234° Southwest 121 139 3,900 -47 Descending Boston Center
Sat 04:25:36 PM 41.6603 -72.6903 235° Southwest 123 142 3,900 50 Level Boston Center
Sat 04:26:36 PM 41.6394 -72.7289 234° Southwest 120 138 4,000  Climbing Boston Center
Sat 04:27:37 PM 41.6183 -72.7622 230° Southwest 117 135 3,900 -55 Descending Boston Center
Sat 04:28:25 PM 41.6036 -72.7872 232° Southwest 116 133 3,900 -56 Level Boston Center
Sat 04:29:25 PM 41.5828 -72.8203 230° Southwest 117 135 3,800 -48 Descending Boston Center
Sat 04:30:29 PM 41.5597 -72.8589 231° Southwest 117 135 3,800  Level Boston Center
Sat 04:32:02 PM 41.5333 -72.9000 229° Southwest 122 140 3,800  Level New York TRACON
Sat 04:33:02 PM 41.5000 -72.9500 228° Southwest 121 139 3,800 50 Level New York TRACON
Sat 04:34:02 PM 41.4833 -72.9833 236° Southwest 123 142 3,900  Climbing New York TRACON
Sat 04:35:07 PM 41.4667 -73.0167 236° Southwest 118 136 3,800 -50 Descending New York TRACON
Sat 04:36:02 PM 41.4500 -73.0500 236° Southwest 119 137 3,800  Level New York TRACON
Sat 04:37:02 PM 41.4333 -73.0833 236° Southwest 120 138 3,800  Level New York TRACON
Sat 04:38:02 PM 41.4000 -73.1167 217° Southwest 120 138 3,800  Level New York TRACON
Sat 04:39:07 PM 41.3833 -73.1500 236° Southwest 122 140 3,800 -48 Level New York TRACON
Sat 04:40:07 PM 41.3667 -73.1833 236° Southwest 119 137 3,700 -50 Descending New York TRACON
Sat 04:41:08 PM 41.3333 -73.2167 217° Southwest 118 136 3,700  Level New York TRACON
Sat 04:42:07 PM 41.3167 -73.2500 236° Southwest 118 136 3,700  Level New York TRACON
Sat 04:43:08 PM 41.3000 -73.2833 236° Southwest 117 135 3,700  Level New York TRACON
Sat 04:44:08 PM 41.2833 -73.3167 236° Southwest 116 133 3,700  Level New York TRACON
Sat 04:45:08 PM 41.2667 -73.3667 246° West 120 138 3,700  Level New York TRACON
Sat 04:46:02 PM 41.2500 -73.3833 217° Southwest 124 143 3,700 -158 Level New York TRACON
Sat 04:47:02 PM 41.2167 -73.4333 228° Southwest 128 147 3,400 -200 Descending New York TRACON
Sat 04:48:02 PM 41.2000 -73.4667 236° Southwest 123 142 3,300 -250 Descending New York TRACON
Sat 04:49:02 PM 41.1833 -73.5000 236° Southwest 124 143 2,900 -500 Descending New York TRACON
Sat 04:50:02 PM 41.1667 -73.5333 236° Southwest 123 142 2,300 -550 Descending New York TRACON
Sat 04:51:02 PM 41.1500 -73.5667 236° Southwest 119 137 1,800 -400 Descending New York TRACON
Sat 04:52:02 PM 41.1333 -73.6167 246° West 110 127 1,500 -200 Descending New York TRACON
Sat 04:53:02 PM 41.1167 -73.6333 217° Southwest 102 117 1,400 -50 Descending New York TRACON
Sat 04:54:02 PM 41.1000 -73.6667 236° Southwest 85 98 1,400  Level New York TRACON
Sat 04:55:08 PM 41.1000 -73.7000 270° West 96 110 1,400 -143 Level New York TRACON
Sat 04:56:08 PM 41.1000 -73.7333 270° West 82 94 1,100 -300 Descending New York TRACON
Sat 04:57:08 PM 41.0833 -73.7167 143° Southeast 68 78 800 -300 Descending New York TRACON
Sat 04:59:00 PM 41.0667 -73.7000 236° Southwest  Level FlightAware Approximate

Login

Don't have an account? Register now (free) for customized features, flight alerts, and more!